sensor_id;sensor_type;location;lat;lon;timestamp;temperature;humidity
27619;DHT22;15039;50.830;4.730;2022-11-25T00:00:46;11.70;99.90
27619;DHT22;15039;50.830;4.730;2022-11-25T00:03:11;11.70;99.90
27619;DHT22;15039;50.830;4.730;2022-11-25T00:05:37;11.80;99.90
27619;DHT22;15039;50.830;4.730;2022-11-25T00:08:03;11.70;99.90
27619;DHT22;15039;50.830;4.730;2022-11-25T00:10:29;11.70;99.90
27619;DHT22;15039;50.830;4.730;2022-11-25T00:12:55;11.70;99.90
27619;DHT22;15039;50.830;4.730;2022-11-25T00:15:20;11.70;99.90
27619;DHT22;15039;50.830;4.730;2022-11-25T00:17:46;11.70;99.90
27619;DHT22;15039;50.830;4.730;2022-11-25T00:20:12;11.70;99.90
27619;DHT22;15039;50.830;4.730;2022-11-25T00:22:37;11.70;99.90
27619;DHT22;15039;50.830;4.730;2022-11-25T00:25:03;11.70;99.90
27619;DHT22;15039;50.830;4.730;2022-11-25T00:27:29;11.70;99.90
27619;DHT22;15039;50.830;4.730;2022-11-25T00:29:55;11.70;99.90
27619;DHT22;15039;50.830;4.730;2022-11-25T00:32:20;11.70;99.90
27619;DHT22;15039;50.830;4.730;2022-11-25T00:34:46;11.70;99.90
27619;DHT22;15039;50.830;4.730;2022-11-25T00:37:12;11.70;99.90
27619;DHT22;15039;50.830;4.730;2022-11-25T00:39:38;11.70;99.90
27619;DHT22;15039;50.830;4.730;2022-11-25T00:42:03;11.80;99.90
27619;DHT22;15039;50.830;4.730;2022-11-25T00:44:47;11.70;99.90
27619;DHT22;15039;50.830;4.730;2022-11-25T00:47:15;11.60;99.90
27619;DHT22;15039;50.830;4.730;2022-11-25T00:49:44;11.60;99.90
27619;DHT22;15039;50.830;4.730;2022-11-25T00:52:17;11.70;99.90
27619;DHT22;15039;50.830;4.730;2022-11-25T00:54:43;11.60;99.90
27619;DHT22;15039;50.830;4.730;2022-11-25T00:57:11;11.70;99.90
27619;DHT22;15039;50.830;4.730;2022-11-25T00:59:37;11.60;99.90
27619;DHT22;15039;50.830;4.730;2022-11-25T01:02:02;11.70;99.90
27619;DHT22;15039;50.830;4.730;2022-11-25T01:04:28;11.70;99.90
27619;DHT22;15039;50.830;4.730;2022-11-25T01:06:54;11.70;99.90
27619;DHT22;15039;50.830;4.730;2022-11-25T01:09:21;11.70;99.90
27619;DHT22;15039;50.830;4.730;2022-11-25T01:11:49;11.70;99.90
27619;DHT22;15039;50.830;4.730;2022-11-25T01:14:15;11.70;99.90
27619;DHT22;15039;50.830;4.730;2022-11-25T01:16:41;11.70;99.90
27619;DHT22;15039;50.830;4.730;2022-11-25T01:19:07;11.60;99.90
27619;DHT22;15039;50.830;4.730;2022-11-25T01:21:33;11.60;99.90
27619;DHT22;15039;50.830;4.730;2022-11-25T01:24:01;11.60;99.90
27619;DHT22;15039;50.830;4.730;2022-11-25T01:26:27;11.50;99.90
27619;DHT22;15039;50.830;4.730;2022-11-25T01:28:55;11.60;99.90
27619;DHT22;15039;50.830;4.730;2022-11-25T01:31:24;11.60;99.90
27619;DHT22;15039;50.830;4.730;2022-11-25T01:33:58;11.60;99.90
27619;DHT22;15039;50.830;4.730;2022-11-25T01:36:24;11.20;99.90
27619;DHT22;15039;50.830;4.730;2022-11-25T01:38:52;10.80;99.90
27619;DHT22;15039;50.830;4.730;2022-11-25T01:41:18;10.60;99.90
27619;DHT22;15039;50.830;4.730;2022-11-25T01:44:06;10.50;99.90
27619;DHT22;15039;50.830;4.730;2022-11-25T01:46:44;10.40;99.90
27619;DHT22;15039;50.830;4.730;2022-11-25T01:49:18;10.30;99.90
27619;DHT22;15039;50.830;4.730;2022-11-25T01:54:39;10.00;99.90
27619;DHT22;15039;50.830;4.730;2022-11-25T01:57:10;10.00;99.90
27619;DHT22;15039;50.830;4.730;2022-11-25T01:59:40;10.00;99.90
27619;DHT22;15039;50.830;4.730;2022-11-25T02:02:07;10.00;99.90
27619;DHT22;15039;50.830;4.730;2022-11-25T02:04:34;10.00;99.90
27619;DHT22;15039;50.830;4.730;2022-11-25T02:07:08;10.00;99.90
27619;DHT22;15039;50.830;4.730;2022-11-25T02:09:38;10.00;99.90
27619;DHT22;15039;50.830;4.730;2022-11-25T02:12:06;10.00;99.90
27619;DHT22;15039;50.830;4.730;2022-11-25T02:14:31;10.00;99.90
27619;DHT22;15039;50.830;4.730;2022-11-25T02:16:59;10.00;99.90
27619;DHT22;15039;50.830;4.730;2022-11-25T02:22:05;10.10;99.90
27619;DHT22;15039;50.830;4.730;2022-11-25T02:24:44;10.00;99.90
27619;DHT22;15039;50.830;4.730;2022-11-25T02:27:10;10.00;99.90
27619;DHT22;15039;50.830;4.730;2022-11-25T02:29:36;10.00;99.90
27619;DHT22;15039;50.830;4.730;2022-11-25T02:32:04;10.10;99.90
27619;DHT22;15039;50.830;4.730;2022-11-25T02:34:30;10.10;99.90
27619;DHT22;15039;50.830;4.730;2022-11-25T02:36:55;10.30;99.90
27619;DHT22;15039;50.830;4.730;2022-11-25T02:39:21;10.30;99.90
27619;DHT22;15039;50.830;4.730;2022-11-25T02:41:52;10.30;99.90
27619;DHT22;15039;50.830;4.730;2022-11-25T02:44:18;10.10;99.90
27619;DHT22;15039;50.830;4.730;2022-11-25T02:46:45;9.90;99.90
27619;DHT22;15039;50.830;4.730;2022-11-25T02:49:10;9.90;99.90
27619;DHT22;15039;50.830;4.730;2022-11-25T02:51:38;9.90;99.90
27619;DHT22;15039;50.830;4.730;2022-11-25T02:54:04;10.00;99.90
27619;DHT22;15039;50.830;4.730;2022-11-25T02:56:32;10.10;99.90
27619;DHT22;15039;50.830;4.730;2022-11-25T02:58:59;10.00;99.90
27619;DHT22;15039;50.830;4.730;2022-11-25T03:01:25;10.00;99.90
27619;DHT22;15039;50.830;4.730;2022-11-25T03:03:50;10.00;99.90
27619;DHT22;15039;50.830;4.730;2022-11-25T03:06:16;9.90;99.90
27619;DHT22;15039;50.830;4.730;2022-11-25T03:08:42;9.90;99.90
27619;DHT22;15039;50.830;4.730;2022-11-25T03:11:07;10.00;99.90
27619;DHT22;15039;50.830;4.730;2022-11-25T03:13:33;10.00;99.90
27619;DHT22;15039;50.830;4.730;2022-11-25T03:15:59;10.00;99.90
27619;DHT22;15039;50.830;4.730;2022-11-25T03:18:25;10.00;99.90
27619;DHT22;15039;50.830;4.730;2022-11-25T03:20:52;9.90;99.90
27619;DHT22;15039;50.830;4.730;2022-11-25T03:23:17;9.80;99.90
27619;DHT22;15039;50.830;4.730;2022-11-25T03:25:43;9.80;99.90
27619;DHT22;15039;50.830;4.730;2022-11-25T03:28:09;9.80;99.90
27619;DHT22;15039;50.830;4.730;2022-11-25T03:30:35;9.80;99.90
27619;DHT22;15039;50.830;4.730;2022-11-25T03:33:00;9.60;99.90
27619;DHT22;15039;50.830;4.730;2022-11-25T03:35:26;9.60;99.90
27619;DHT22;15039;50.830;4.730;2022-11-25T03:37:52;9.50;99.90
27619;DHT22;15039;50.830;4.730;2022-11-25T03:40:18;9.40;99.90
27619;DHT22;15039;50.830;4.730;2022-11-25T03:42:44;9.40;99.90
27619;DHT22;15039;50.830;4.730;2022-11-25T03:45:13;9.30;99.90
27619;DHT22;15039;50.830;4.730;2022-11-25T03:47:40;9.30;99.90
27619;DHT22;15039;50.830;4.730;2022-11-25T03:50:06;9.30;99.90
27619;DHT22;15039;50.830;4.730;2022-11-25T03:52:32;9.30;99.90
27619;DHT22;15039;50.830;4.730;2022-11-25T03:54:58;9.40;99.90
27619;DHT22;15039;50.830;4.730;2022-11-25T03:57:23;9.40;99.90
27619;DHT22;15039;50.830;4.730;2022-11-25T03:59:49;9.40;99.90
27619;DHT22;15039;50.830;4.730;2022-11-25T04:02:14;9.50;99.90
27619;DHT22;15039;50.830;4.730;2022-11-25T04:04:40;9.40;99.90
27619;DHT22;15039;50.830;4.730;2022-11-25T04:07:06;9.30;99.90
27619;DHT22;15039;50.830;4.730;2022-11-25T04:09:31;9.30;99.90
27619;DHT22;15039;50.830;4.730;2022-11-25T04:11:57;9.40;99.90
27619;DHT22;15039;50.830;4.730;2022-11-25T04:14:41;9.40;99.90
27619;DHT22;15039;50.830;4.730;2022-11-25T04:17:07;9.40;99.90
27619;DHT22;15039;50.830;4.730;2022-11-25T04:19:32;9.50;99.90
27619;DHT22;15039;50.830;4.730;2022-11-25T04:21:58;9.50;99.90
27619;DHT22;15039;50.830;4.730;2022-11-25T04:24:25;9.50;99.90
27619;DHT22;15039;50.830;4.730;2022-11-25T04:26:51;9.50;99.90
27619;DHT22;15039;50.830;4.730;2022-11-25T04:29:17;9.50;99.90
27619;DHT22;15039;50.830;4.730;2022-11-25T04:31:42;9.40;99.90
27619;DHT22;15039;50.830;4.730;2022-11-25T04:34:09;9.40;99.90
27619;DHT22;15039;50.830;4.730;2022-11-25T04:36:34;9.40;99.90
27619;DHT22;15039;50.830;4.730;2022-11-25T04:39:00;9.30;99.90
27619;DHT22;15039;50.830;4.730;2022-11-25T04:41:26;9.20;99.90
27619;DHT22;15039;50.830;4.730;2022-11-25T04:43:51;9.10;99.90
27619;DHT22;15039;50.830;4.730;2022-11-25T04:46:22;9.10;99.90
27619;DHT22;15039;50.830;4.730;2022-11-25T04:48:49;9.10;99.90
27619;DHT22;15039;50.830;4.730;2022-11-25T04:51:15;9.10;99.90
27619;DHT22;15039;50.830;4.730;2022-11-25T04:53:41;9.10;99.90
27619;DHT22;15039;50.830;4.730;2022-11-25T04:56:08;9.00;99.90
27619;DHT22;15039;50.830;4.730;2022-11-25T04:58:40;9.00;99.90
27619;DHT22;15039;50.830;4.730;2022-11-25T05:01:24;8.90;99.90
27619;DHT22;15039;50.830;4.730;2022-11-25T05:03:49;9.00;99.90
27619;DHT22;15039;50.830;4.730;2022-11-25T05:06:15;9.00;99.90
27619;DHT22;15039;50.830;4.730;2022-11-25T05:08:40;9.10;99.90
27619;DHT22;15039;50.830;4.730;2022-11-25T05:11:06;9.00;99.90
27619;DHT22;15039;50.830;4.730;2022-11-25T05:13:32;9.10;99.90
27619;DHT22;15039;50.830;4.730;2022-11-25T05:15:58;9.00;99.90
27619;DHT22;15039;50.830;4.730;2022-11-25T05:18:24;9.00;99.90
27619;DHT22;15039;50.830;4.730;2022-11-25T05:20:50;9.00;99.90
27619;DHT22;15039;50.830;4.730;2022-11-25T05:23:15;9.00;99.90
27619;DHT22;15039;50.830;4.730;2022-11-25T05:25:41;9.10;99.90
27619;DHT22;15039;50.830;4.730;2022-11-25T05:28:06;9.00;99.90
27619;DHT22;15039;50.830;4.730;2022-11-25T05:30:32;9.00;99.90
27619;DHT22;15039;50.830;4.730;2022-11-25T05:32:58;8.90;99.90
27619;DHT22;15039;50.830;4.730;2022-11-25T05:35:23;8.90;99.90
27619;DHT22;15039;50.830;4.730;2022-11-25T05:37:49;8.80;99.90
27619;DHT22;15039;50.830;4.730;2022-11-25T05:40:15;8.90;99.90
27619;DHT22;15039;50.830;4.730;2022-11-25T05:42:40;8.90;99.90
27619;DHT22;15039;50.830;4.730;2022-11-25T05:45:06;8.90;99.90
27619;DHT22;15039;50.830;4.730;2022-11-25T05:47:32;8.90;99.90
27619;DHT22;15039;50.830;4.730;2022-11-25T05:49:58;8.90;99.90
27619;DHT22;15039;50.830;4.730;2022-11-25T05:52:23;8.90;99.90
27619;DHT22;15039;50.830;4.730;2022-11-25T05:54:49;8.80;99.90
27619;DHT22;15039;50.830;4.730;2022-11-25T05:57:14;8.80;99.90
27619;DHT22;15039;50.830;4.730;2022-11-25T05:59:40;8.70;99.90
27619;DHT22;15039;50.830;4.730;2022-11-25T06:02:06;8.70;99.90
27619;DHT22;15039;50.830;4.730;2022-11-25T06:04:31;8.50;99.90
27619;DHT22;15039;50.830;4.730;2022-11-25T06:06:57;8.60;99.90
27619;DHT22;15039;50.830;4.730;2022-11-25T06:09:23;8.70;99.90
27619;DHT22;15039;50.830;4.730;2022-11-25T06:11:48;8.60;99.90
27619;DHT22;15039;50.830;4.730;2022-11-25T06:14:14;8.70;99.90
27619;DHT22;15039;50.830;4.730;2022-11-25T06:16:42;8.70;99.90
27619;DHT22;15039;50.830;4.730;2022-11-25T06:19:07;8.70;99.90
27619;DHT22;15039;50.830;4.730;2022-11-25T06:21:33;8.70;99.90
27619;DHT22;15039;50.830;4.730;2022-11-25T06:23:59;8.70;99.90
27619;DHT22;15039;50.830;4.730;2022-11-25T06:26:24;8.70;99.90
27619;DHT22;15039;50.830;4.730;2022-11-25T06:28:54;8.70;99.90
27619;DHT22;15039;50.830;4.730;2022-11-25T06:31:22;8.70;99.90
27619;DHT22;15039;50.830;4.730;2022-11-25T06:33:49;8.60;99.90
27619;DHT22;15039;50.830;4.730;2022-11-25T06:36:16;8.70;99.90
27619;DHT22;15039;50.830;4.730;2022-11-25T06:38:43;8.60;99.90
27619;DHT22;15039;50.830;4.730;2022-11-25T06:41:09;8.50;99.90
27619;DHT22;15039;50.830;4.730;2022-11-25T06:43:35;8.50;99.90
27619;DHT22;15039;50.830;4.730;2022-11-25T06:46:06;8.50;99.90
27619;DHT22;15039;50.830;4.730;2022-11-25T06:48:31;8.60;99.90
27619;DHT22;15039;50.830;4.730;2022-11-25T06:50:59;8.70;99.90
27619;DHT22;15039;50.830;4.730;2022-11-25T06:53:25;8.50;99.90
27619;DHT22;15039;50.830;4.730;2022-11-25T06:58:29;8.50;99.90
27619;DHT22;15039;50.830;4.730;2022-11-25T07:01:06;8.50;99.90
27619;DHT22;15039;50.830;4.730;2022-11-25T07:03:32;8.40;99.90
27619;DHT22;15039;50.830;4.730;2022-11-25T07:05:58;8.40;99.90
27619;DHT22;15039;50.830;4.730;2022-11-25T07:08:25;8.50;99.90
27619;DHT22;15039;50.830;4.730;2022-11-25T07:10:52;8.40;99.90
27619;DHT22;15039;50.830;4.730;2022-11-25T07:13:18;8.40;99.90
27619;DHT22;15039;50.830;4.730;2022-11-25T07:15:44;8.40;99.90
27619;DHT22;15039;50.830;4.730;2022-11-25T07:18:10;8.50;99.90
27619;DHT22;15039;50.830;4.730;2022-11-25T07:20:35;8.50;99.90
27619;DHT22;15039;50.830;4.730;2022-11-25T07:23:01;8.50;99.90
27619;DHT22;15039;50.830;4.730;2022-11-25T07:25:26;8.50;99.90
27619;DHT22;15039;50.830;4.730;2022-11-25T07:27:52;8.40;99.90
27619;DHT22;15039;50.830;4.730;2022-11-25T07:30:18;8.40;99.90
27619;DHT22;15039;50.830;4.730;2022-11-25T07:32:43;8.40;99.90
27619;DHT22;15039;50.830;4.730;2022-11-25T07:35:09;8.40;99.90
27619;DHT22;15039;50.830;4.730;2022-11-25T07:37:35;8.40;99.90
27619;DHT22;15039;50.830;4.730;2022-11-25T07:40:00;8.50;99.90
27619;DHT22;15039;50.830;4.730;2022-11-25T07:42:26;8.50;99.90
27619;DHT22;15039;50.830;4.730;2022-11-25T07:44:51;8.40;99.90
27619;DHT22;15039;50.830;4.730;2022-11-25T07:47:17;8.50;99.90
27619;DHT22;15039;50.830;4.730;2022-11-25T07:49:42;8.50;99.90
27619;DHT22;15039;50.830;4.730;2022-11-25T07:52:08;8.50;99.90
27619;DHT22;15039;50.830;4.730;2022-11-25T07:54:34;8.50;99.90
27619;DHT22;15039;50.830;4.730;2022-11-25T07:57:00;8.60;99.90
27619;DHT22;15039;50.830;4.730;2022-11-25T07:59:25;8.60;99.90
27619;DHT22;15039;50.830;4.730;2022-11-25T08:01:52;8.60;99.90
27619;DHT22;15039;50.830;4.730;2022-11-25T08:04:19;8.60;99.90
27619;DHT22;15039;50.830;4.730;2022-11-25T08:06:45;8.60;99.90
27619;DHT22;15039;50.830;4.730;2022-11-25T08:09:14;8.70;99.90
27619;DHT22;15039;50.830;4.730;2022-11-25T08:11:40;8.60;99.90
27619;DHT22;15039;50.830;4.730;2022-11-25T08:14:06;8.60;99.90
27619;DHT22;15039;50.830;4.730;2022-11-25T08:16:32;8.70;99.90
27619;DHT22;15039;50.830;4.730;2022-11-25T08:19:00;8.70;99.90
27619;DHT22;15039;50.830;4.730;2022-11-25T08:21:27;8.70;99.90
27619;DHT22;15039;50.830;4.730;2022-11-25T08:23:52;8.80;99.90
27619;DHT22;15039;50.830;4.730;2022-11-25T08:26:24;8.70;99.90
27619;DHT22;15039;50.830;4.730;2022-11-25T08:28:51;8.80;99.90
27619;DHT22;15039;50.830;4.730;2022-11-25T08:31:38;8.80;99.90
27619;DHT22;15039;50.830;4.730;2022-11-25T08:34:05;8.90;99.90
27619;DHT22;15039;50.830;4.730;2022-11-25T08:36:32;8.90;99.90
27619;DHT22;15039;50.830;4.730;2022-11-25T08:39:00;8.90;99.90
27619;DHT22;15039;50.830;4.730;2022-11-25T08:41:29;8.90;99.90
27619;DHT22;15039;50.830;4.730;2022-11-25T08:43:56;8.90;99.90
27619;DHT22;15039;50.830;4.730;2022-11-25T08:46:26;8.90;99.90
27619;DHT22;15039;50.830;4.730;2022-11-25T08:48:51;9.00;99.90
27619;DHT22;15039;50.830;4.730;2022-11-25T08:51:21;9.00;99.90
27619;DHT22;15039;50.830;4.730;2022-11-25T08:53:48;9.00;99.90
27619;DHT22;15039;50.830;4.730;2022-11-25T08:56:16;9.00;99.90
27619;DHT22;15039;50.830;4.730;2022-11-25T08:58:42;9.00;99.90
27619;DHT22;15039;50.830;4.730;2022-11-25T09:01:08;9.00;99.90
27619;DHT22;15039;50.830;4.730;2022-11-25T09:03:37;9.10;99.90
27619;DHT22;15039;50.830;4.730;2022-11-25T09:06:04;9.10;99.90
27619;DHT22;15039;50.830;4.730;2022-11-25T09:08:30;9.20;99.90
27619;DHT22;15039;50.830;4.730;2022-11-25T09:10:56;9.20;99.90
27619;DHT22;15039;50.830;4.730;2022-11-25T09:13:22;9.20;99.90
27619;DHT22;15039;50.830;4.730;2022-11-25T09:15:48;9.30;99.90
27619;DHT22;15039;50.830;4.730;2022-11-25T09:18:14;9.30;99.90
27619;DHT22;15039;50.830;4.730;2022-11-25T09:20:40;9.40;99.90
27619;DHT22;15039;50.830;4.730;2022-11-25T09:23:07;9.40;99.90
27619;DHT22;15039;50.830;4.730;2022-11-25T09:25:34;9.50;99.90
27619;DHT22;15039;50.830;4.730;2022-11-25T09:28:00;9.50;99.90
27619;DHT22;15039;50.830;4.730;2022-11-25T09:30:26;9.50;99.90
27619;DHT22;15039;50.830;4.730;2022-11-25T09:32:52;9.50;99.90
27619;DHT22;15039;50.830;4.730;2022-11-25T09:35:19;9.50;99.90
27619;DHT22;15039;50.830;4.730;2022-11-25T09:37:44;9.50;99.90
27619;DHT22;15039;50.830;4.730;2022-11-25T09:40:17;9.40;99.90
27619;DHT22;15039;50.830;4.730;2022-11-25T09:43:01;9.40;99.90
27619;DHT22;15039;50.830;4.730;2022-11-25T09:46:08;9.40;99.90
27619;DHT22;15039;50.830;4.730;2022-11-25T09:48:59;9.40;99.90
27619;DHT22;15039;50.830;4.730;2022-11-25T09:51:56;9.40;99.90
27619;DHT22;15039;50.830;4.730;2022-11-25T09:57:20;9.60;99.90
27619;DHT22;15039;50.830;4.730;2022-11-25T10:05:30;9.70;99.90
27619;DHT22;15039;50.830;4.730;2022-11-25T10:08:02;9.80;99.90
27619;DHT22;15039;50.830;4.730;2022-11-25T10:10:47;9.90;99.90
27619;DHT22;15039;50.830;4.730;2022-11-25T10:15:53;10.10;99.90
27619;DHT22;15039;50.830;4.730;2022-11-25T10:18:38;10.10;99.90
27619;DHT22;15039;50.830;4.730;2022-11-25T10:21:05;10.20;99.90
27619;DHT22;15039;50.830;4.730;2022-11-25T10:23:33;10.30;99.90
27619;DHT22;15039;50.830;4.730;2022-11-25T10:26:02;10.40;99.90
27619;DHT22;15039;50.830;4.730;2022-11-25T10:28:33;10.40;99.90
27619;DHT22;15039;50.830;4.730;2022-11-25T10:31:18;10.50;99.90
27619;DHT22;15039;50.830;4.730;2022-11-25T10:33:50;10.50;99.90
27619;DHT22;15039;50.830;4.730;2022-11-25T10:36:35;10.60;99.90
27619;DHT22;15039;50.830;4.730;2022-11-25T10:39:04;10.60;99.90
27619;DHT22;15039;50.830;4.730;2022-11-25T10:41:58;10.60;99.90
27619;DHT22;15039;50.830;4.730;2022-11-25T10:44:29;10.70;99.90
27619;DHT22;15039;50.830;4.730;2022-11-25T10:52:10;10.90;99.90
27619;DHT22;15039;50.830;4.730;2022-11-25T10:54:36;10.90;99.90
27619;DHT22;15039;50.830;4.730;2022-11-25T10:57:04;11.00;99.90
27619;DHT22;15039;50.830;4.730;2022-11-25T10:59:40;11.00;99.90
27619;DHT22;15039;50.830;4.730;2022-11-25T11:02:29;11.00;99.90
27619;DHT22;15039;50.830;4.730;2022-11-25T11:04:59;11.10;99.90
27619;DHT22;15039;50.830;4.730;2022-11-25T11:07:28;11.10;99.90
27619;DHT22;15039;50.830;4.730;2022-11-25T11:10:16;11.10;99.90
27619;DHT22;15039;50.830;4.730;2022-11-25T11:17:54;11.20;99.90
27619;DHT22;15039;50.830;4.730;2022-11-25T11:20:25;11.30;99.90
27619;DHT22;15039;50.830;4.730;2022-11-25T11:23:12;11.40;99.90
27619;DHT22;15039;50.830;4.730;2022-11-25T11:25:40;11.30;99.90
27619;DHT22;15039;50.830;4.730;2022-11-25T11:31:17;11.30;99.90
27619;DHT22;15039;50.830;4.730;2022-11-25T11:44:35;11.20;99.90
27619;DHT22;15039;50.830;4.730;2022-11-25T11:47:11;11.30;99.90
27619;DHT22;15039;50.830;4.730;2022-11-25T11:52:55;11.30;99.90
27619;DHT22;15039;50.830;4.730;2022-11-25T11:59:02;11.50;99.90
27619;DHT22;15039;50.830;4.730;2022-11-25T12:04:39;11.60;99.90
27619;DHT22;15039;50.830;4.730;2022-11-25T12:07:31;11.60;99.90
27619;DHT22;15039;50.830;4.730;2022-11-25T12:12:37;11.70;99.90
27619;DHT22;15039;50.830;4.730;2022-11-25T12:15:16;11.80;99.90
27619;DHT22;15039;50.830;4.730;2022-11-25T12:18:30;11.70;99.90
27619;DHT22;15039;50.830;4.730;2022-11-25T12:21:02;11.70;99.90
27619;DHT22;15039;50.830;4.730;2022-11-25T12:30:18;11.90;99.90
27619;DHT22;15039;50.830;4.730;2022-11-25T12:35:14;12.00;99.90
27619;DHT22;15039;50.830;4.730;2022-11-25T12:37:53;12.00;99.90
27619;DHT22;15039;50.830;4.730;2022-11-25T12:40:39;12.00;99.90
27619;DHT22;15039;50.830;4.730;2022-11-25T12:48:48;12.00;99.90
27619;DHT22;15039;50.830;4.730;2022-11-25T12:53:58;12.00;99.90
27619;DHT22;15039;50.830;4.730;2022-11-25T13:04:38;11.90;99.90
27619;DHT22;15039;50.830;4.730;2022-11-25T13:07:30;11.90;99.90
27619;DHT22;15039;50.830;4.730;2022-11-25T13:10:13;12.00;99.90
27619;DHT22;15039;50.830;4.730;2022-11-25T13:12:54;12.00;99.90
27619;DHT22;15039;50.830;4.730;2022-11-25T13:15:29;12.00;99.90
27619;DHT22;15039;50.830;4.730;2022-11-25T13:18:11;11.90;99.90
27619;DHT22;15039;50.830;4.730;2022-11-25T13:20:52;12.00;99.90
27619;DHT22;15039;50.830;4.730;2022-11-25T13:23:20;12.10;99.90
27619;DHT22;15039;50.830;4.730;2022-11-25T13:25:49;12.20;99.90
27619;DHT22;15039;50.830;4.730;2022-11-25T13:28:35;12.30;99.90
27619;DHT22;15039;50.830;4.730;2022-11-25T13:36:25;12.60;99.90
27619;DHT22;15039;50.830;4.730;2022-11-25T13:39:13;12.60;99.90
27619;DHT22;15039;50.830;4.730;2022-11-25T13:41:44;12.60;99.90
27619;DHT22;15039;50.830;4.730;2022-11-25T13:44:25;12.50;99.90
27619;DHT22;15039;50.830;4.730;2022-11-25T13:46:57;12.50;99.90
27619;DHT22;15039;50.830;4.730;2022-11-25T13:54:43;12.20;99.90
27619;DHT22;15039;50.830;4.730;2022-11-25T13:59:57;12.20;99.90
27619;DHT22;15039;50.830;4.730;2022-11-25T14:07:33;12.30;99.90
27619;DHT22;15039;50.830;4.730;2022-11-25T14:15:39;12.30;99.90
27619;DHT22;15039;50.830;4.730;2022-11-25T14:26:52;12.30;99.90
27619;DHT22;15039;50.830;4.730;2022-11-25T14:29:41;12.30;99.90
27619;DHT22;15039;50.830;4.730;2022-11-25T14:32:13;12.20;99.90
27619;DHT22;15039;50.830;4.730;2022-11-25T14:34:53;12.10;99.90
27619;DHT22;15039;50.830;4.730;2022-11-25T14:37:33;12.10;99.90
27619;DHT22;15039;50.830;4.730;2022-11-25T14:40:37;12.10;99.90
27619;DHT22;15039;50.830;4.730;2022-11-25T14:43:12;12.00;99.90
27619;DHT22;15039;50.830;4.730;2022-11-25T14:45:39;11.90;99.90
27619;DHT22;15039;50.830;4.730;2022-11-25T14:48:15;11.80;99.90
27619;DHT22;15039;50.830;4.730;2022-11-25T14:51:03;11.80;99.90
27619;DHT22;15039;50.830;4.730;2022-11-25T14:53:41;11.70;99.90
27619;DHT22;15039;50.830;4.730;2022-11-25T14:56:08;11.60;99.90
27619;DHT22;15039;50.830;4.730;2022-11-25T14:58:34;11.50;99.90
27619;DHT22;15039;50.830;4.730;2022-11-25T15:01:06;11.50;99.90
27619;DHT22;15039;50.830;4.730;2022-11-25T15:03:32;11.50;99.90
27619;DHT22;15039;50.830;4.730;2022-11-25T15:06:05;11.30;99.90
27619;DHT22;15039;50.830;4.730;2022-11-25T15:08:42;11.30;99.90
27619;DHT22;15039;50.830;4.730;2022-11-25T15:11:20;11.20;99.90
27619;DHT22;15039;50.830;4.730;2022-11-25T15:14:04;11.30;99.90
27619;DHT22;15039;50.830;4.730;2022-11-25T15:16:31;11.30;99.90
27619;DHT22;15039;50.830;4.730;2022-11-25T15:18:59;11.20;99.90
27619;DHT22;15039;50.830;4.730;2022-11-25T15:21:34;11.00;99.90
27619;DHT22;15039;50.830;4.730;2022-11-25T15:24:04;10.90;99.90
27619;DHT22;15039;50.830;4.730;2022-11-25T15:26:33;10.90;99.90
27619;DHT22;15039;50.830;4.730;2022-11-25T15:29:03;10.80;99.90
27619;DHT22;15039;50.830;4.730;2022-11-25T15:31:34;10.90;99.90
27619;DHT22;15039;50.830;4.730;2022-11-25T15:34:09;10.90;99.90
27619;DHT22;15039;50.830;4.730;2022-11-25T15:36:36;10.80;99.90
27619;DHT22;15039;50.830;4.730;2022-11-25T15:41:53;10.70;99.90
27619;DHT22;15039;50.830;4.730;2022-11-25T15:44:26;10.70;99.90
27619;DHT22;15039;50.830;4.730;2022-11-25T15:49:21;10.50;99.90
27619;DHT22;15039;50.830;4.730;2022-11-25T15:51:58;10.50;99.90
27619;DHT22;15039;50.830;4.730;2022-11-25T15:54:37;10.50;99.90
27619;DHT22;15039;50.830;4.730;2022-11-25T15:57:15;10.50;99.90
27619;DHT22;15039;50.830;4.730;2022-11-25T16:00:00;10.40;99.90
27619;DHT22;15039;50.830;4.730;2022-11-25T16:08:23;10.40;99.90
27619;DHT22;15039;50.830;4.730;2022-11-25T16:10:52;10.40;99.90
27619;DHT22;15039;50.830;4.730;2022-11-25T16:21:24;10.30;99.90
27619;DHT22;15039;50.830;4.730;2022-11-25T16:24:06;10.30;99.90
27619;DHT22;15039;50.830;4.730;2022-11-25T16:26:56;10.30;99.90
27619;DHT22;15039;50.830;4.730;2022-11-25T16:29:35;10.10;99.90
27619;DHT22;15039;50.830;4.730;2022-11-25T16:32:09;10.10;99.90
27619;DHT22;15039;50.830;4.730;2022-11-25T16:34:36;10.10;99.90
27619;DHT22;15039;50.830;4.730;2022-11-25T16:37:02;10.00;99.90
27619;DHT22;15039;50.830;4.730;2022-11-25T16:39:27;9.90;99.90
27619;DHT22;15039;50.830;4.730;2022-11-25T16:41:56;9.90;99.90
27619;DHT22;15039;50.830;4.730;2022-11-25T16:44:23;9.90;99.90
27619;DHT22;15039;50.830;4.730;2022-11-25T16:46:50;9.90;99.90
27619;DHT22;15039;50.830;4.730;2022-11-25T16:49:17;9.90;99.90
27619;DHT22;15039;50.830;4.730;2022-11-25T16:51:44;9.70;99.90
27619;DHT22;15039;50.830;4.730;2022-11-25T16:54:10;9.80;99.90
27619;DHT22;15039;50.830;4.730;2022-11-25T16:56:39;9.70;99.90
27619;DHT22;15039;50.830;4.730;2022-11-25T16:59:05;9.80;99.90
27619;DHT22;15039;50.830;4.730;2022-11-25T17:01:32;9.60;99.90
27619;DHT22;15039;50.830;4.730;2022-11-25T17:03:58;9.50;99.90
27619;DHT22;15039;50.830;4.730;2022-11-25T17:06:26;9.50;99.90
27619;DHT22;15039;50.830;4.730;2022-11-25T17:08:53;9.50;99.90
27619;DHT22;15039;50.830;4.730;2022-11-25T17:11:32;9.50;99.90
27619;DHT22;15039;50.830;4.730;2022-11-25T17:14:02;9.50;99.90
27619;DHT22;15039;50.830;4.730;2022-11-25T17:16:29;9.50;99.90
27619;DHT22;15039;50.830;4.730;2022-11-25T17:18:57;9.50;99.90
27619;DHT22;15039;50.830;4.730;2022-11-25T17:21:23;9.50;99.90
27619;DHT22;15039;50.830;4.730;2022-11-25T17:24:19;9.60;99.90
27619;DHT22;15039;50.830;4.730;2022-11-25T17:26:48;9.60;99.90
27619;DHT22;15039;50.830;4.730;2022-11-25T17:29:20;9.60;99.90
27619;DHT22;15039;50.830;4.730;2022-11-25T17:31:46;9.60;99.90
27619;DHT22;15039;50.830;4.730;2022-11-25T17:34:14;9.40;99.90
27619;DHT22;15039;50.830;4.730;2022-11-25T17:36:41;9.20;99.90
27619;DHT22;15039;50.830;4.730;2022-11-25T17:39:11;9.40;99.90
27619;DHT22;15039;50.830;4.730;2022-11-25T17:41:48;9.30;99.90
27619;DHT22;15039;50.830;4.730;2022-11-25T17:44:20;9.20;99.90
27619;DHT22;15039;50.830;4.730;2022-11-25T17:46:46;9.10;99.90
27619;DHT22;15039;50.830;4.730;2022-11-25T17:49:13;9.20;99.90
27619;DHT22;15039;50.830;4.730;2022-11-25T17:51:40;9.30;99.90
27619;DHT22;15039;50.830;4.730;2022-11-25T17:54:05;9.30;99.90
27619;DHT22;15039;50.830;4.730;2022-11-25T17:56:31;9.30;99.90
27619;DHT22;15039;50.830;4.730;2022-11-25T17:59:02;9.20;99.90
27619;DHT22;15039;50.830;4.730;2022-11-25T18:01:28;9.20;99.90
27619;DHT22;15039;50.830;4.730;2022-11-25T18:03:54;9.20;99.90
27619;DHT22;15039;50.830;4.730;2022-11-25T18:06:20;9.10;99.90
27619;DHT22;15039;50.830;4.730;2022-11-25T18:08:45;9.20;99.90